createdAt,value
2023-04-05T00:01:07.814Z,1.50
2023-04-05T00:03:35.994Z,1.47
2023-04-05T00:06:05.511Z,1.48
2023-04-05T00:08:33.420Z,1.43
2023-04-05T00:11:01.949Z,1.42
2023-04-05T00:13:30.486Z,1.42
2023-04-05T00:16:01.306Z,1.42
2023-04-05T00:18:34.419Z,1.42
2023-04-05T00:21:02.415Z,1.38
2023-04-05T00:23:37.518Z,1.39
2023-04-05T00:26:05.621Z,1.40
2023-04-05T00:28:33.369Z,1.37
2023-04-05T00:31:02.474Z,1.39
2023-04-05T00:33:30.222Z,1.34
2023-04-05T00:35:58.035Z,1.35
2023-04-05T00:38:25.909Z,1.30
2023-04-05T00:40:53.699Z,1.33
2023-04-05T00:43:21.439Z,1.31
2023-04-05T00:45:49.345Z,1.32
2023-04-05T00:48:18.559Z,1.32
2023-04-05T00:50:47.680Z,1.29
2023-04-05T00:53:16.246Z,1.26
2023-04-05T00:55:44.092Z,1.26
2023-04-05T00:58:11.814Z,1.26
2023-04-05T01:00:40.098Z,1.28
2023-04-05T01:03:08.570Z,1.13
2023-04-05T01:05:40.084Z,1.23
2023-04-05T01:08:15.778Z,1.25
2023-04-05T01:10:46.134Z,1.23
2023-04-05T01:13:13.951Z,1.22
2023-04-05T01:15:42.527Z,1.17
2023-04-05T01:18:11.955Z,1.17
2023-04-05T01:20:45.733Z,1.14
2023-04-05T01:23:37.664Z,1.10
2023-04-05T01:26:36.899Z,1.09
2023-04-05T01:29:50.442Z,1.04
2023-04-05T01:32:35.598Z,0.97
2023-04-05T01:35:07.752Z,0.94
2023-04-05T01:37:36.138Z,0.68
2023-04-05T01:40:06.202Z,0.89
2023-04-05T01:42:33.978Z,0.84
2023-04-05T01:45:01.712Z,0.77
2023-04-05T01:47:30.993Z,0.75
2023-04-05T01:49:58.720Z,0.70
2023-04-05T01:52:26.496Z,0.64
2023-04-05T01:54:54.264Z,0.61
2023-04-05T01:57:22.009Z,0.58
2023-04-05T01:59:49.766Z,0.53
2023-04-05T02:02:17.648Z,0.53
2023-04-05T02:04:46.821Z,0.52
2023-04-05T02:07:14.620Z,0.48
2023-04-05T02:09:42.558Z,0.45
2023-04-05T02:12:10.506Z,0.42
2023-04-05T02:14:38.744Z,0.47
2023-04-05T02:17:06.738Z,0.44
2023-04-05T02:19:40.780Z,0.37
2023-04-05T02:22:10.129Z,0.34
2023-04-05T02:24:37.982Z,0.30
2023-04-05T02:27:05.752Z,0.27
2023-04-05T02:29:34.892Z,0.25
2023-04-05T02:32:02.970Z,0.17
2023-04-05T02:34:31.220Z,0.26
2023-04-05T02:36:59.020Z,0.21
2023-04-05T02:39:29.104Z,0.25
2023-04-05T02:41:57.003Z,0.27
2023-04-05T02:44:24.849Z,0.25
2023-04-05T02:46:52.869Z,0.21
2023-04-05T02:49:20.921Z,0.17
2023-04-05T02:51:48.775Z,0.13
2023-04-05T02:54:16.543Z,0.12
2023-04-05T02:56:46.358Z,0.09
2023-04-05T02:59:14.860Z,0.07
2023-04-05T03:01:44.390Z,0.08
2023-04-05T03:04:13.111Z,0.05
2023-04-05T03:06:48.806Z,0.03
2023-04-05T03:09:16.734Z,-0.03
2023-04-05T03:11:45.894Z,-0.02
2023-04-05T03:14:14.015Z,-0.05
2023-04-05T03:16:41.860Z,-0.03
2023-04-05T03:19:10.013Z,-0.05
2023-04-05T03:21:37.840Z,-0.04
2023-04-05T03:24:07.267Z,-0.07
2023-04-05T03:26:35.095Z,-0.07
2023-04-05T03:29:04.296Z,-0.09
2023-04-05T03:31:32.132Z,-0.10
2023-04-05T03:34:00.016Z,-0.11
2023-04-05T03:36:28.802Z,-0.14
2023-04-05T03:38:56.723Z,-0.16
2023-04-05T03:41:24.567Z,-0.17
2023-04-05T03:43:52.596Z,-0.19
2023-04-05T03:46:21.814Z,-0.19
2023-04-05T03:48:49.670Z,-0.21
2023-04-05T03:51:18.973Z,-0.20
2023-04-05T03:53:47.004Z,-0.24
2023-04-05T03:56:15.237Z,-0.24
2023-04-05T03:58:43.142Z,-0.26
2023-04-05T04:01:11.456Z,-0.27
2023-04-05T04:03:40.639Z,-0.29
2023-04-05T04:06:09.368Z,-0.31
2023-04-05T04:08:37.301Z,-0.31
2023-04-05T04:11:05.485Z,-0.34
2023-04-05T04:13:33.348Z,-0.34
2023-04-05T04:16:01.301Z,-0.36
2023-04-05T04:18:29.140Z,-0.39
2023-04-05T04:20:58.735Z,-0.34
2023-04-05T04:23:27.352Z,-0.35
2023-04-05T04:25:55.947Z,-0.35
2023-04-05T04:28:25.107Z,-0.34
2023-04-05T04:30:52.988Z,-0.35
2023-04-05T04:33:20.945Z,-0.37
2023-04-05T04:35:48.770Z,-0.37
2023-04-05T04:38:20.575Z,-0.41
2023-04-05T04:40:50.875Z,-0.45
2023-04-05T04:43:19.005Z,-0.54
2023-04-05T04:45:48.602Z,-0.43
2023-04-05T04:48:17.429Z,-0.47
2023-04-05T04:50:45.451Z,-0.47
2023-04-05T04:53:14.410Z,-0.47
2023-04-05T04:55:43.654Z,-0.46
2023-04-05T04:58:12.518Z,-0.48
2023-04-05T05:00:41.011Z,-0.52
2023-04-05T05:03:11.517Z,-0.50
2023-04-05T05:05:43.727Z,-0.50
2023-04-05T05:08:11.627Z,-0.51
2023-04-05T05:10:39.735Z,-0.55
2023-04-05T05:13:09.387Z,-0.49
2023-04-05T05:15:37.182Z,-0.48
2023-04-05T05:18:05.342Z,-0.45
2023-04-05T05:20:33.285Z,-0.43
2023-04-05T05:23:04.077Z,-0.40
2023-04-05T05:25:32.083Z,-0.36
2023-04-05T05:28:00.200Z,-0.32
2023-04-05T05:30:29.509Z,-0.26
2023-04-05T05:32:57.970Z,-0.23
2023-04-05T05:35:25.823Z,-0.18
2023-04-05T05:37:53.853Z,-0.13
2023-04-05T05:40:21.693Z,-0.06
2023-04-05T05:42:49.723Z,0.02
2023-04-05T05:45:17.597Z,0.07
2023-04-05T05:47:46.884Z,0.18
2023-04-05T05:50:16.645Z,0.27
2023-04-05T05:52:44.453Z,0.35
2023-04-05T05:55:12.274Z,0.47
2023-04-05T05:57:40.086Z,0.59
2023-04-05T06:00:10.744Z,0.69
2023-04-05T06:02:38.753Z,0.80
2023-04-05T06:05:08.974Z,0.88
2023-04-05T06:07:38.094Z,0.98
2023-04-05T06:10:06.570Z,0.92
2023-04-05T06:12:34.530Z,1.13
2023-04-05T06:15:02.621Z,1.23
2023-04-05T06:17:30.531Z,1.32
2023-04-05T06:19:58.428Z,1.40
2023-04-05T06:22:27.678Z,1.47
2023-04-05T06:24:55.464Z,1.49
2023-04-05T06:27:23.303Z,1.58
2023-04-05T06:29:51.113Z,1.61
2023-04-05T06:32:18.933Z,1.67
2023-04-05T06:34:49.101Z,1.78
2023-04-05T06:37:16.919Z,1.91
2023-04-05T06:39:46.373Z,1.94
2023-04-05T06:42:14.369Z,2.05
2023-04-05T06:44:42.271Z,2.07
2023-04-05T06:47:10.192Z,2.19
2023-04-05T06:49:38.037Z,2.25
2023-04-05T06:52:08.928Z,2.35
2023-04-05T06:54:38.731Z,2.44
2023-04-05T06:57:07.973Z,2.47
2023-04-05T06:59:36.016Z,2.52
2023-04-05T07:02:03.782Z,2.41
2023-04-05T07:04:37.215Z,2.35
2023-04-05T07:07:05.434Z,2.40
2023-04-05T07:09:34.005Z,2.55
2023-04-05T07:12:02.272Z,2.58
2023-04-05T07:14:32.768Z,2.65
2023-04-05T07:17:01.049Z,2.65
2023-04-05T07:19:29.050Z,2.85
2023-04-05T07:21:57.153Z,2.97
2023-04-05T07:24:25.254Z,3.22
2023-04-05T07:26:53.309Z,3.32
2023-04-05T07:29:21.268Z,3.36
2023-04-05T07:31:50.539Z,3.37
2023-04-05T07:34:18.317Z,3.40
2023-04-05T07:36:46.776Z,3.46
2023-04-05T07:39:14.656Z,3.46
2023-04-05T07:41:43.285Z,3.67
2023-04-05T07:44:11.736Z,3.79
2023-04-05T07:46:46.155Z,3.84
2023-04-05T07:49:16.935Z,4.04
2023-04-05T07:51:46.474Z,3.97
2023-04-05T07:54:14.495Z,3.98
2023-04-05T07:56:42.577Z,4.11
2023-04-05T07:59:11.091Z,4.40
2023-04-05T08:01:40.326Z,4.40
2023-04-05T08:04:08.317Z,4.45
2023-04-05T08:06:44.296Z,4.39
2023-04-05T08:09:12.157Z,4.43
2023-04-05T08:11:40.934Z,4.50
2023-04-05T08:14:09.883Z,4.68
2023-04-05T08:16:38.636Z,4.90
2023-04-05T08:19:06.657Z,5.09
2023-04-05T08:21:34.487Z,5.01
2023-04-05T08:24:03.814Z,5.10
2023-04-05T08:26:31.584Z,5.29
2023-04-05T08:28:59.449Z,5.39
2023-04-05T08:31:27.318Z,5.43
2023-04-05T08:33:55.190Z,5.11
2023-04-05T08:36:23.337Z,4.95
2023-04-05T08:38:51.242Z,4.80
2023-04-05T08:41:21.728Z,5.04
2023-04-05T08:43:57.447Z,5.39
2023-04-05T08:46:25.839Z,5.64
2023-04-05T08:48:53.869Z,5.52
2023-04-05T08:51:22.207Z,5.55
2023-04-05T08:53:50.580Z,5.86
2023-04-05T08:56:25.620Z,5.96
2023-04-05T08:58:59.311Z,6.21
2023-04-05T09:01:28.966Z,6.16
2023-04-05T09:03:58.156Z,6.04
2023-04-05T09:06:27.220Z,6.13
2023-04-05T09:08:55.090Z,5.98
2023-04-05T09:11:24.357Z,5.96
2023-04-05T09:13:52.248Z,6.30
2023-04-05T09:16:20.877Z,6.45
2023-04-05T09:18:49.237Z,6.59
2023-04-05T09:21:17.730Z,6.38
2023-04-05T09:23:53.078Z,6.35
2023-04-05T09:26:21.461Z,6.50
2023-04-05T09:28:50.977Z,6.94
2023-04-05T09:31:32.103Z,7.42
2023-04-05T09:34:01.622Z,7.64
2023-04-05T09:36:29.515Z,7.39
2023-04-05T09:39:06.814Z,6.95
2023-04-05T09:41:34.942Z,6.88
2023-04-05T09:44:04.590Z,7.35
2023-04-05T09:46:34.536Z,7.65
2023-04-05T09:49:04.010Z,8.01
2023-04-05T09:51:35.807Z,7.94
2023-04-05T09:54:05.748Z,7.65
2023-04-05T09:56:36.121Z,7.66
2023-04-05T09:59:08.342Z,7.71
2023-04-05T10:01:36.957Z,7.92
2023-04-05T10:04:06.231Z,8.05
2023-04-05T10:06:40.581Z,8.21
2023-04-05T10:09:09.607Z,7.83
2023-04-05T10:11:38.233Z,7.89
2023-04-05T10:14:09.029Z,7.74
2023-04-05T10:16:40.221Z,7.86
2023-04-05T10:19:16.693Z,7.46
2023-04-05T10:21:45.175Z,7.70
2023-04-05T10:24:20.083Z,7.71
2023-04-05T10:26:57.371Z,7.52
2023-04-05T10:29:33.605Z,7.92
2023-04-05T10:32:07.635Z,8.08
2023-04-05T10:34:41.668Z,9.02
2023-04-05T10:37:14.905Z,9.54
2023-04-05T10:39:46.934Z,9.28
2023-04-05T10:42:19.404Z,8.69
2023-04-05T10:44:52.929Z,8.64
2023-04-05T10:47:20.966Z,8.48
2023-04-05T10:49:51.038Z,8.59
2023-04-05T10:52:19.348Z,8.70
2023-04-05T10:54:47.485Z,9.11
2023-04-05T10:57:15.546Z,9.68
2023-04-05T10:59:45.582Z,10.08
2023-04-05T11:02:15.651Z,10.68
2023-04-05T11:04:43.717Z,10.26
2023-04-05T11:07:13.353Z,10.03
2023-04-05T11:09:51.694Z,9.93
2023-04-05T11:12:19.521Z,10.24
2023-04-05T11:14:47.387Z,9.69
2023-04-05T11:17:30.990Z,8.16
2023-04-05T11:20:04.872Z,8.72
2023-04-05T11:22:33.109Z,8.83
2023-04-05T11:25:03.194Z,9.78
2023-04-05T11:27:32.016Z,10.59
2023-04-05T11:30:01.222Z,10.78
2023-04-05T11:32:41.732Z,10.97
2023-04-05T11:35:14.414Z,10.68
2023-04-05T11:37:58.894Z,11.04
2023-04-05T11:40:29.195Z,10.56
2023-04-05T11:43:05.931Z,10.66
2023-04-05T11:45:34.627Z,10.41
2023-04-05T11:48:06.365Z,10.10
2023-04-05T11:50:34.974Z,10.63
2023-04-05T11:53:09.776Z,10.99
2023-04-05T11:55:37.879Z,10.38
2023-04-05T11:58:13.249Z,10.38
2023-04-05T12:00:42.155Z,10.67
2023-04-05T12:03:14.168Z,10.27
2023-04-05T12:05:49.846Z,9.42
2023-04-05T12:08:18.036Z,9.25
2023-04-05T12:10:46.557Z,9.39
2023-04-05T12:13:14.437Z,10.29
2023-04-05T12:15:42.436Z,10.77
2023-04-05T12:18:21.395Z,10.59
2023-04-05T12:20:49.269Z,11.44
2023-04-05T12:23:17.887Z,12.26
2023-04-05T12:25:47.868Z,12.44
2023-04-05T12:28:15.855Z,11.64
2023-04-05T12:30:50.107Z,10.46
2023-04-05T12:33:29.356Z,10.63
2023-04-05T12:35:57.315Z,11.23
2023-04-05T12:38:27.512Z,10.90
2023-04-05T12:40:55.381Z,11.06
2023-04-05T12:43:24.361Z,11.54
2023-04-05T12:45:56.514Z,12.47
2023-04-05T12:48:26.102Z,12.99
2023-04-05T12:50:55.455Z,12.94
2023-04-05T12:53:25.417Z,12.99
2023-04-05T12:55:55.037Z,12.75
2023-04-05T12:58:24.232Z,11.84
2023-04-05T13:00:52.101Z,12.39
2023-04-05T13:03:21.586Z,12.89
2023-04-05T13:05:49.791Z,12.88
2023-04-05T13:08:19.422Z,12.36
2023-04-05T13:10:47.840Z,12.98
2023-04-05T13:13:16.455Z,13.23
2023-04-05T13:15:44.795Z,12.61
2023-04-05T13:18:14.919Z,12.37
2023-04-05T13:20:43.576Z,12.33
2023-04-05T13:23:12.777Z,11.94
2023-04-05T13:25:43.403Z,13.02
2023-04-05T13:28:11.830Z,13.51
2023-04-05T13:30:39.774Z,13.64
2023-04-05T13:33:07.641Z,13.84
2023-04-05T13:35:35.737Z,13.39
2023-04-05T13:38:04.828Z,13.04
2023-04-05T13:40:32.925Z,13.60
2023-04-05T13:43:02.165Z,13.62
2023-04-05T13:45:30.069Z,13.89
2023-04-05T13:47:57.940Z,13.94
2023-04-05T13:50:26.260Z,13.48
2023-04-05T13:52:54.080Z,13.57
2023-04-05T13:55:21.902Z,13.34
2023-04-05T13:57:49.944Z,12.78
2023-04-05T14:00:19.588Z,13.07
2023-04-05T14:02:48.945Z,13.10
2023-04-05T14:05:18.214Z,13.19
2023-04-05T14:07:46.563Z,12.90
2023-04-05T14:10:15.067Z,12.61
2023-04-05T14:12:42.899Z,12.47
2023-04-05T14:15:11.571Z,12.63
2023-04-05T14:17:40.960Z,13.19
2023-04-05T14:20:09.505Z,13.75
2023-04-05T14:22:37.359Z,13.99
2023-04-05T14:25:08.042Z,13.34
2023-04-05T14:27:41.245Z,13.23
2023-04-05T14:30:10.284Z,12.76
2023-04-05T14:32:38.130Z,12.33
2023-04-05T14:35:08.538Z,11.89
2023-04-05T14:37:36.551Z,10.88
2023-04-05T14:40:04.632Z,10.33
2023-04-05T14:42:47.704Z,10.19
2023-04-05T14:45:16.841Z,10.10
2023-04-05T14:47:44.756Z,10.33
2023-04-05T14:50:14.053Z,10.19
2023-04-05T14:52:41.862Z,10.02
2023-04-05T14:55:12.441Z,9.84
2023-04-05T14:57:40.332Z,9.85
2023-04-05T15:00:09.286Z,10.02
2023-04-05T15:02:38.116Z,10.03
2023-04-05T15:05:06.960Z,9.98
2023-04-05T15:07:36.185Z,10.08
2023-04-05T15:10:04.262Z,10.57
2023-04-05T15:12:33.107Z,10.77
2023-04-05T15:15:02.257Z,11.20
2023-04-05T15:17:30.196Z,10.97
2023-04-05T15:19:58.078Z,10.38
2023-04-05T15:22:27.076Z,10.66
2023-04-05T15:24:56.467Z,11.23
2023-04-05T15:27:24.267Z,10.99
2023-04-05T15:29:52.076Z,10.90
2023-04-05T15:32:19.915Z,10.73
2023-04-05T15:34:47.723Z,10.77
2023-04-05T15:37:15.605Z,10.87
2023-04-05T15:39:43.428Z,10.66
2023-04-05T15:42:12.630Z,10.29
2023-04-05T15:44:40.453Z,10.39
2023-04-05T15:47:08.252Z,10.48
2023-04-05T15:49:36.030Z,10.46
2023-04-05T15:52:03.862Z,10.75
2023-04-05T15:54:31.711Z,10.64
2023-04-05T15:56:59.530Z,10.70
2023-04-05T15:59:28.791Z,10.25
2023-04-05T16:01:56.652Z,10.01
2023-04-05T16:04:24.973Z,10.29
2023-04-05T16:06:52.914Z,10.50
2023-04-05T16:09:20.762Z,10.63
2023-04-05T16:11:48.625Z,10.70
2023-04-05T16:14:16.727Z,10.48
2023-04-05T16:16:53.839Z,10.68
2023-04-05T16:19:23.480Z,11.03
2023-04-05T16:21:52.773Z,11.05
2023-04-05T16:24:21.246Z,11.01
2023-04-05T16:26:49.126Z,11.32
2023-04-05T16:29:16.952Z,11.56
2023-04-05T16:31:47.542Z,11.67
2023-04-05T16:34:15.661Z,11.57
2023-04-05T16:36:43.660Z,11.57
2023-04-05T16:39:11.472Z,11.70
2023-04-05T16:41:39.260Z,11.57
2023-04-05T16:44:07.094Z,11.37
2023-04-05T16:46:34.895Z,11.30
2023-04-05T16:49:04.437Z,10.99
2023-04-05T16:51:32.540Z,10.43
2023-04-05T16:54:00.821Z,10.08
2023-04-05T16:56:28.601Z,9.94
2023-04-05T16:58:57.645Z,9.87
2023-04-05T17:01:26.684Z,10.04
2023-04-05T17:03:54.652Z,9.83
2023-04-05T17:06:23.882Z,9.56
2023-04-05T17:08:51.677Z,9.21
2023-04-05T17:11:19.433Z,8.90
2023-04-05T17:13:47.484Z,8.83
2023-04-05T17:16:16.180Z,8.73
2023-04-05T17:18:44.051Z,8.54
2023-04-05T17:21:12.417Z,8.71
2023-04-05T17:23:41.595Z,8.92
2023-04-05T17:26:09.471Z,9.05
2023-04-05T17:28:37.275Z,9.17
2023-04-05T17:31:05.252Z,9.11
2023-04-05T17:33:33.217Z,9.05
2023-04-05T17:36:02.053Z,8.92
2023-04-05T17:38:30.025Z,9.02
2023-04-05T17:40:59.490Z,8.87
2023-04-05T17:43:27.557Z,8.69
2023-04-05T17:45:55.578Z,8.72
2023-04-05T17:48:23.718Z,8.47
2023-04-05T17:50:51.746Z,8.66
2023-04-05T17:53:19.599Z,8.59
2023-04-05T17:55:47.401Z,8.56
2023-04-05T17:58:16.642Z,8.51
2023-04-05T18:00:45.015Z,8.48
2023-04-05T18:03:13.329Z,8.42
2023-04-05T18:05:41.371Z,8.33
2023-04-05T18:08:09.169Z,8.24
2023-04-05T18:10:37.055Z,8.05
2023-04-05T18:13:05.893Z,7.94
2023-04-05T18:15:35.100Z,7.87
2023-04-05T18:18:02.981Z,7.85
2023-04-05T18:20:30.859Z,7.78
2023-04-05T18:22:59.892Z,7.69
2023-04-05T18:25:28.205Z,7.64
2023-04-05T18:27:56.556Z,7.58
2023-04-05T18:30:24.443Z,7.47
2023-04-05T18:32:53.625Z,7.39
2023-04-05T18:35:22.096Z,7.30
2023-04-05T18:37:49.966Z,7.23
2023-04-05T18:40:18.005Z,7.22
2023-04-05T18:42:46.437Z,7.10
2023-04-05T18:45:14.315Z,7.00
2023-04-05T18:47:42.243Z,7.00
2023-04-05T18:50:12.392Z,6.91
2023-04-05T18:52:40.377Z,6.92
2023-04-05T18:55:09.448Z,6.82
2023-04-05T18:57:37.218Z,6.79
2023-04-05T19:00:06.106Z,6.73
2023-04-05T19:02:33.987Z,6.62
2023-04-05T19:05:01.903Z,6.60
2023-04-05T19:07:31.194Z,6.55
2023-04-05T19:09:59.027Z,6.49
2023-04-05T19:12:26.895Z,6.44
2023-04-05T19:14:54.750Z,6.33
2023-04-05T19:17:22.570Z,6.26
2023-04-05T19:19:50.402Z,6.19
2023-04-05T19:22:18.242Z,6.17
2023-04-05T19:24:47.453Z,6.12
2023-04-05T19:27:15.566Z,6.10
2023-04-05T19:29:43.400Z,6.06
2023-04-05T19:32:11.274Z,5.99
2023-04-05T19:34:39.727Z,5.93
2023-04-05T19:37:07.579Z,5.88
2023-04-05T19:39:37.277Z,5.87
2023-04-05T19:42:07.358Z,5.80
2023-04-05T19:44:48.947Z,5.75
2023-04-05T19:47:19.073Z,5.56
2023-04-05T19:49:46.965Z,5.60
2023-04-05T19:52:35.861Z,5.57
2023-04-05T19:55:09.977Z,5.53
2023-04-05T19:57:45.933Z,5.47
2023-04-05T20:00:35.040Z,5.45
2023-04-05T20:03:03.358Z,5.39
2023-04-05T20:05:59.638Z,5.34
2023-04-05T20:08:27.471Z,5.27
2023-04-05T20:10:55.333Z,5.01
2023-04-05T20:13:24.548Z,5.16
2023-04-05T20:15:52.777Z,5.10
2023-04-05T20:18:23.814Z,5.06
2023-04-05T20:20:53.238Z,5.03
2023-04-05T20:23:23.280Z,4.98
2023-04-05T20:25:52.252Z,4.94
2023-04-05T20:28:29.879Z,4.90
2023-04-05T20:30:57.768Z,4.87
2023-04-05T20:33:36.107Z,4.84
2023-04-05T20:36:10.057Z,4.80
2023-04-05T20:38:38.652Z,4.80
2023-04-05T20:41:06.926Z,4.80
2023-04-05T20:43:36.411Z,4.83
2023-04-05T20:46:06.278Z,4.89
2023-04-05T20:48:35.413Z,4.93
2023-04-05T20:51:04.742Z,4.98
2023-04-05T20:53:33.190Z,5.01
2023-04-05T20:56:01.372Z,4.97
2023-04-05T20:58:29.298Z,4.94
2023-04-05T21:00:58.929Z,4.88
2023-04-05T21:03:26.880Z,4.85
2023-04-05T21:05:54.756Z,4.81
2023-04-05T21:08:22.507Z,4.81
2023-04-05T21:10:50.370Z,4.76
2023-04-05T21:13:18.173Z,4.75
2023-04-05T21:15:46.108Z,4.70
2023-04-05T21:18:15.494Z,4.66
2023-04-05T21:20:50.344Z,4.59
2023-04-05T21:23:18.315Z,4.63
2023-04-05T21:25:46.185Z,4.60
2023-04-05T21:28:14.285Z,4.65
2023-04-05T21:30:42.128Z,4.62
2023-04-05T21:33:09.983Z,4.59
2023-04-05T21:35:39.266Z,4.56
2023-04-05T21:38:07.327Z,4.46
2023-04-05T21:40:35.502Z,4.41
2023-04-05T21:43:03.316Z,4.38
2023-04-05T21:45:31.198Z,4.35
2023-04-05T21:47:59.045Z,4.30
2023-04-05T21:50:26.945Z,4.26
2023-04-05T21:52:56.089Z,4.22
2023-04-05T21:55:23.973Z,4.18
2023-04-05T21:57:51.815Z,4.15
2023-04-05T22:00:20.286Z,4.10
2023-04-05T22:02:48.274Z,3.94
2023-04-05T22:05:29.485Z,4.00
2023-04-05T22:08:06.239Z,3.99
2023-04-05T22:10:35.137Z,3.96
2023-04-05T22:13:02.933Z,3.92
2023-04-05T22:15:31.030Z,3.89
2023-04-05T22:17:58.907Z,3.86
2023-04-05T22:20:26.727Z,3.84
2023-04-05T22:22:54.584Z,3.81
2023-04-05T22:25:23.804Z,3.78
2023-04-05T22:27:51.626Z,3.76
2023-04-05T22:30:21.219Z,3.71
2023-04-05T22:32:51.808Z,3.67
2023-04-05T22:35:19.821Z,3.62
2023-04-05T22:37:47.622Z,3.58
2023-04-05T22:40:15.527Z,3.54
2023-04-05T22:42:46.476Z,3.52
2023-04-05T22:45:14.285Z,3.50
2023-04-05T22:47:42.197Z,3.48
2023-04-05T22:50:10.637Z,3.48
2023-04-05T22:52:38.674Z,3.48
2023-04-05T22:55:07.824Z,3.47
2023-04-05T22:57:35.654Z,3.46
2023-04-05T23:00:05.657Z,3.49
2023-04-05T23:02:33.572Z,3.49
2023-04-05T23:05:01.541Z,3.49
2023-04-05T23:07:29.562Z,3.48
2023-04-05T23:09:57.363Z,3.42
2023-04-05T23:12:25.175Z,3.39
2023-04-05T23:14:52.934Z,3.36
2023-04-05T23:17:22.690Z,3.32
2023-04-05T23:19:50.540Z,3.28
2023-04-05T23:22:18.360Z,3.26
2023-04-05T23:24:46.159Z,3.24
2023-04-05T23:27:14.151Z,3.21
2023-04-05T23:29:42.054Z,3.17
2023-04-05T23:32:12.907Z,3.15
2023-04-05T23:34:42.188Z,3.14
2023-04-05T23:37:10.424Z,3.09
2023-04-05T23:39:38.333Z,3.10
2023-04-05T23:42:06.541Z,3.03
2023-04-05T23:44:34.582Z,3.02
2023-04-05T23:47:02.671Z,2.97
2023-04-05T23:49:30.878Z,2.92
2023-04-05T23:52:00.484Z,2.88
2023-04-05T23:54:28.463Z,2.87
2023-04-05T23:56:57.602Z,2.82
2023-04-05T23:59:26.303Z,2.81
